Seacod — DDPW — position and weather

sailwx.info

Track history (hours):
 
Tides and Currents Weather Stations Pressure Air Temp Water Temp Dewpoint Dewpoint Depression Visibility Wind Speed Wind Dir Waves Ship Positions

Seacod

Last reported at 2016-Jul-29 05:32 UTC. Time now 2016-Jul-30 07:19 UTC.
Position N 57°55' E 010°10'.

Length 188 m; draft 9.9 m.

Type: Ship. MMSI: 218019000.

Date/timePositionNaut miles runAvg speedWind from/ knotsBaromVisibWave heightAir tempDewpointWater temp
2016-Jul-29 05:32N 57°55' E 010°10'2613.1
2016-Jul-29 03:33N 58°08' E 010°52'1312.7
2016-Jul-29 02:33N 58°15' E 011°13'9 9.3
2016-Jul-29 01:32N 58°21' E 011°25'1 0.2
2016-Jul-28 22:27N 58°21' E 011°26'0 0.0
2016-Jul-28 21:09N 58°21' E 011°26'0 0.0
2016-Jul-28 20:30N 58°21' E 011°26'0 0.0
2016-Jul-28 18:33N 58°21' E 011°26'0 0.0
2016-Jul-28 17:29N 58°21' E 011°26'0 0.0
2016-Jul-28 16:29N 58°21' E 011°26'0 0.0
2016-Jul-28 15:17N 58°21' E 011°26'0 0.0
2016-Jul-28 14:23N 58°21' E 011°26'0 0.0
2016-Jul-28 13:29N 58°21' E 011°26'0 0.0
2016-Jul-28 12:29N 58°21' E 011°26'0 0.0
2016-Jul-28 11:29N 58°21' E 011°26'0 0.0
2016-Jul-28 10:05N 58°21' E 011°26'0 0.0
2016-Jul-28 09:29N 58°21' E 011°26'0 0.0
2016-Jul-28 08:26N 58°21' E 011°26'0 0.0
2016-Jul-28 07:29N 58°21' E 011°26'0 0.0
2016-Jul-28 06:32N 58°21' E 011°26'0 0.0
2016-Jul-28 05:23N 58°21' E 011°26'0 0.0
2016-Jul-28 04:23N 58°21' E 011°26'0 0.0
2016-Jul-28 03:10N 58°21' E 011°26'0 0.0
2016-Jul-28 02:30N 58°21' E 011°26'0 0.0
2016-Jul-28 01:24N 58°21' E 011°26'0 0.0
2016-Jul-28 00:33N 58°21' E 011°26'0 0.0
2016-Jul-27 23:16N 58°21' E 011°26'0 0.0
2016-Jul-27 22:29N 58°21' E 011°26'0 0.0
2016-Jul-27 20:05N 58°21' E 011°26'0 0.0
2016-Jul-27 19:08N 58°21' E 011°26'0 0.0
2016-Jul-27 18:20N 58°21' E 011°26'0 0.1
2016-Jul-27 17:33N 58°21' E 011°26'8 8.0
2016-Jul-27 16:34N 58°16' E 011°15'5 4.7
2016-Jul-27 15:31N 58°12' E 011°12'0 0.0
2016-Jul-27 14:31N 58°12' E 011°12'0 0.0
2016-Jul-27 13:30N 58°12' E 011°12'0 0.0
2016-Jul-27 12:33N 58°12' E 011°12'0 0.0
2016-Jul-27 11:32N 58°12' E 011°12'0 0.0
2016-Jul-27 10:32N 58°12' E 011°12'0 0.0
2016-Jul-27 09:32N 58°12' E 011°12'0 0.0
2016-Jul-27 08:31N 58°12' E 011°12'0 0.0
2016-Jul-27 07:31N 58°12' E 011°12'0 0.0
2016-Jul-27 06:32N 58°12' E 011°12'0 0.0
2016-Jul-27 05:29N 58°12' E 011°12'0 0.1
2016-Jul-27 04:31N 58°12' E 011°12'0 0.0
2016-Jul-27 03:31N 58°11' E 011°12'0 0.0
2016-Jul-27 02:31N 58°11' E 011°12'0 0.0
2016-Jul-27 01:31N 58°11' E 011°12'0 0.0
2016-Jul-27 00:31N 58°11' E 011°12'0 0.0
2016-Jul-26 23:31N 58°11' E 011°12'0 0.0
2016-Jul-26 22:31N 58°12' E 011°12'2 2.1
2016-Jul-26 21:33N 58°10' E 011°08'1414.2
2016-Jul-26 20:33N 58°05' E 010°43'29313.7
2016-Jul-25 23:05N 54°17' E 005°13'814.2
2016-Jul-25 22:30N 54°09' E 005°10'1314.2
2016-Jul-25 21:33N 53°56' E 005°03'1414.3
2016-Jul-25 20:33N 53°42' E 004°55'4414.7
2016-Jul-25 17:33N 53°03' E 004°23'1413.9
2016-Jul-25 16:33N 52°50' E 004°13'1212.1
2016-Jul-25 15:34N 52°38' E 004°16'1312.6
2016-Jul-25 14:34N 52°29' E 004°30'5 5.0
2016-Jul-25 13:33N 52°28' E 004°38'7 6.8
2016-Jul-25 12:33N 52°25' E 004°48'2 1.5
2016-Jul-25 11:33N 52°25' E 004°50'0 0.0
2016-Jul-25 10:33N 52°25' E 004°50'0 0.0
2016-Jul-25 09:30N 52°25' E 004°50'0 0.0
2016-Jul-25 08:33N 52°25' E 004°50'0 0.0
2016-Jul-25 07:30N 52°25' E 004°50'0 0.0
2016-Jul-25 06:30N 52°25' E 004°50'0 0.0
2016-Jul-25 05:24N 52°25' E 004°50'0 0.0
2016-Jul-25 04:33N 52°25' E 004°50'0 0.0
2016-Jul-25 03:33N 52°25' E 004°50'0 0.0
2016-Jul-25 02:33N 52°25' E 004°50'0 0.0
2016-Jul-25 01:33N 52°25' E 004°50'0 0.0
2016-Jul-25 00:33N 52°25' E 004°50'0 0.0
2016-Jul-24 23:33N 52°25' E 004°50'0 0.0
2016-Jul-24 22:33N 52°25' E 004°50'0 0.0
2016-Jul-24 21:33N 52°25' E 004°50'0 0.0
2016-Jul-24 20:33N 52°25' E 004°50'0 0.0
2016-Jul-24 19:33N 52°25' E 004°50'0 0.0
2016-Jul-24 18:30N 52°25' E 004°50'0 0.0
2016-Jul-24 17:33N 52°25' E 004°50'0 0.0
2016-Jul-24 16:33N 52°25' E 004°50'0 0.0
2016-Jul-24 15:33N 52°25' E 004°50'0 0.0
2016-Jul-24 14:33N 52°25' E 004°50'0 0.0
2016-Jul-24 13:33N 52°25' E 004°50'0 0.0
2016-Jul-24 12:33N 52°25' E 004°50'0 0.0
2016-Jul-24 11:27N 52°25' E 004°50'0 0.0
2016-Jul-24 10:33N 52°25' E 004°50'0 0.0
2016-Jul-24 09:33N 52°25' E 004°50'0 0.0
2016-Jul-24 08:33N 52°25' E 004°50'0 0.0
2016-Jul-24 07:33N 52°25' E 004°50'0 0.0
2016-Jul-24 06:33N 52°25' E 004°50'0 0.0
2016-Jul-24 05:33N 52°25' E 004°50'0 0.0
2016-Jul-24 04:33N 52°25' E 004°50'0 0.0
2016-Jul-24 03:33N 52°25' E 004°50'0 0.0
2016-Jul-24 02:33N 52°25' E 004°50'0 0.0
2016-Jul-24 01:34N 52°25' E 004°50'3 2.7
2016-Jul-24 00:34N 52°26' E 004°46'6 6.2
2016-Jul-23 23:33N 52°28' E 004°37'4 3.8
2016-Jul-23 22:33N 52°28' E 004°30'1010.0
2016-Jul-23 21:33N 52°29' E 004°14'7 6.9
2016-Jul-23 20:31N 52°27' E 004°02'0 0.1
2016-Jul-23 19:28N 52°27' E 004°02'0 0.0
2016-Jul-23 18:22N 52°27' E 004°02'0 0.0
2016-Jul-23 17:31N 52°27' E 004°02'0 0.0
2016-Jul-23 16:31N 52°27' E 004°02'0 0.0
2016-Jul-23 15:31N 52°27' E 004°02'0 0.1
2016-Jul-23 14:31N 52°27' E 004°02'0 0.0
2016-Jul-23 13:31N 52°27' E 004°02'0 0.0
2016-Jul-23 12:28N 52°27' E 004°02'0 0.0
2016-Jul-23 11:31N 52°27' E 004°02'0 0.0
2016-Jul-23 10:31N 52°27' E 004°02'0 0.0
2016-Jul-23 09:31N 52°27' E 004°02'0 0.0
2016-Jul-23 08:22N 52°27' E 004°02'0 0.0
2016-Jul-23 06:16N 52°27' E 004°02'0 0.0
2016-Jul-23 04:31N 52°27' E 004°02'0 0.0
2016-Jul-23 03:28N 52°27' E 004°02'0 0.1
2016-Jul-23 02:31N 52°27' E 004°02'0 0.0
2016-Jul-23 01:28N 52°27' E 004°02'0 0.0
2016-Jul-23 00:33N 52°27' E 004°02'0 0.0
2016-Jul-22 23:30N 52°27' E 004°02'0 0.0
2016-Jul-22 22:32N 52°27' E 004°02'3 3.2
2016-Jul-22 21:33N 52°27' E 003°57'1312.7
2016-Jul-22 20:33N 52°25' E 003°37'5310.1
2016-Jul-22 15:19N 53°18' E 003°24'7 1.8
2016-Jul-22 11:33N 53°23' E 003°30'4 4.4
2016-Jul-22 10:33N 53°27' E 003°33'8 7.5
2016-Jul-22 09:31N 53°35' E 003°37'2512.5
2016-Jul-22 07:30N 53°54' E 004°05'4013.4
2016-Jul-22 04:32N 54°24' E 004°48'26113.0
2016-Jul-21 08:29N 57°47' E 009°45'1213.2
2016-Jul-21 07:33N 57°50' E 010°07'1414.1
2016-Jul-21 06:34N 57°49' E 010°33'1312.9
2016-Jul-21 05:33N 57°45' E 010°56'1313.5
2016-Jul-21 04:33N 57°36' E 011°14'1313.3
2016-Jul-21 03:33N 57°25' E 011°28'1413.7
2016-Jul-21 02:33N 57°12' E 011°36'1313.4
2016-Jul-21 01:33N 56°59' E 011°46'1313.3
2016-Jul-21 00:33N 56°47' E 011°53'1313.2
2016-Jul-20 23:33N 56°35' E 011°43'1313.5
2016-Jul-20 22:33N 56°23' E 011°31'1313.0
2016-Jul-20 21:33N 56°12' E 011°19'1312.7
2016-Jul-20 20:34N 56°02' E 011°06'5012.4
2016-Jul-20 16:33N 55°12' E 011°05'1312.7
2016-Jul-20 15:33N 54°60' E 010°59'1313.3
2016-Jul-20 14:33N 54°48' E 010°50'1010.2
2016-Jul-20 13:33N 54°38' E 010°55'1313.0
2016-Jul-20 12:34N 54°35' E 011°17'1413.5
2016-Jul-20 11:33N 54°29' E 011°38'1312.6
2016-Jul-20 10:33N 54°26' E 011°59'1110.8
2016-Jul-20 09:34N 54°32' E 012°14'1212.3
2016-Jul-20 08:33N 54°41' E 012°29'3313.4
2016-Jul-20 06:04N 54°56' E 013°21'713.7
2016-Jul-20 05:33N 54°58' E 013°33'1413.7
2016-Jul-20 04:34N 55°02' E 013°55'1313.1
2016-Jul-20 03:33N 55°11' E 014°13'1413.8
2016-Jul-20 02:33N 55°22' E 014°28'1313.5
2016-Jul-20 01:34N 55°30' E 014°47'1413.8
2016-Jul-20 00:33N 55°37' E 015°08'1413.7
2016-Jul-19 23:33N 55°43' E 015°29'1413.6
2016-Jul-19 22:30N 55°51' E 015°51'1513.4
2016-Jul-19 21:23N 55°58' E 016°15'1313.3
2016-Jul-19 20:25N 56°05' E 016°34'  
Track history (hours):
 
Tides and Currents Weather Stations Pressure Air Temp Water Temp Dewpoint Dewpoint Depression Visibility Wind Speed Wind Dir Waves Ship Positions

Seacod

Last reported at 2016-Jul-29 05:32 UTC. Time now 2016-Jul-30 07:19 UTC.
Position N 57°55' E 010°10'.

Length 188 m; draft 9.9 m.

Type: Ship. MMSI: 218019000.

Date/timePositionNaut miles runAvg speedWind from/ knotsBaromVisibWave heightAir tempDewpointWater temp
2016-Jul-29 05:32N 57°55' E 010°10'2613.1
2016-Jul-29 03:33N 58°08' E 010°52'1312.7
2016-Jul-29 02:33N 58°15' E 011°13'9 9.3
2016-Jul-29 01:32N 58°21' E 011°25'1 0.2
2016-Jul-28 22:27N 58°21' E 011°26'0 0.0
2016-Jul-28 21:09N 58°21' E 011°26'0 0.0
2016-Jul-28 20:30N 58°21' E 011°26'0 0.0
2016-Jul-28 18:33N 58°21' E 011°26'0 0.0
2016-Jul-28 17:29N 58°21' E 011°26'0 0.0
2016-Jul-28 16:29N 58°21' E 011°26'0 0.0
2016-Jul-28 15:17N 58°21' E 011°26'0 0.0
2016-Jul-28 14:23N 58°21' E 011°26'0 0.0
2016-Jul-28 13:29N 58°21' E 011°26'0 0.0
2016-Jul-28 12:29N 58°21' E 011°26'0 0.0
2016-Jul-28 11:29N 58°21' E 011°26'0 0.0
2016-Jul-28 10:05N 58°21' E 011°26'0 0.0
2016-Jul-28 09:29N 58°21' E 011°26'0 0.0
2016-Jul-28 08:26N 58°21' E 011°26'0 0.0
2016-Jul-28 07:29N 58°21' E 011°26'0 0.0
2016-Jul-28 06:32N 58°21' E 011°26'0 0.0
2016-Jul-28 05:23N 58°21' E 011°26'0 0.0
2016-Jul-28 04:23N 58°21' E 011°26'0 0.0
2016-Jul-28 03:10N 58°21' E 011°26'0 0.0
2016-Jul-28 02:30N 58°21' E 011°26'0 0.0
2016-Jul-28 01:24N 58°21' E 011°26'0 0.0
2016-Jul-28 00:33N 58°21' E 011°26'0 0.0
2016-Jul-27 23:16N 58°21' E 011°26'0 0.0
2016-Jul-27 22:29N 58°21' E 011°26'0 0.0
2016-Jul-27 20:05N 58°21' E 011°26'0 0.0
2016-Jul-27 19:08N 58°21' E 011°26'0 0.0
2016-Jul-27 18:20N 58°21' E 011°26'0 0.1
2016-Jul-27 17:33N 58°21' E 011°26'8 8.0
2016-Jul-27 16:34N 58°16' E 011°15'5 4.7
2016-Jul-27 15:31N 58°12' E 011°12'0 0.0
2016-Jul-27 14:31N 58°12' E 011°12'0 0.0
2016-Jul-27 13:30N 58°12' E 011°12'0 0.0
2016-Jul-27 12:33N 58°12' E 011°12'0 0.0
2016-Jul-27 11:32N 58°12' E 011°12'0 0.0
2016-Jul-27 10:32N 58°12' E 011°12'0 0.0
2016-Jul-27 09:32N 58°12' E 011°12'0 0.0
2016-Jul-27 08:31N 58°12' E 011°12'0 0.0
2016-Jul-27 07:31N 58°12' E 011°12'0 0.0
2016-Jul-27 06:32N 58°12' E 011°12'0 0.0
2016-Jul-27 05:29N 58°12' E 011°12'0 0.1
2016-Jul-27 04:31N 58°12' E 011°12'0 0.0
2016-Jul-27 03:31N 58°11' E 011°12'0 0.0
2016-Jul-27 02:31N 58°11' E 011°12'0 0.0
2016-Jul-27 01:31N 58°11' E 011°12'0 0.0
2016-Jul-27 00:31N 58°11' E 011°12'0 0.0
2016-Jul-26 23:31N 58°11' E 011°12'0 0.0
2016-Jul-26 22:31N 58°12' E 011°12'2 2.1
2016-Jul-26 21:33N 58°10' E 011°08'1414.2
2016-Jul-26 20:33N 58°05' E 010°43'29313.7
2016-Jul-25 23:05N 54°17' E 005°13'814.2
2016-Jul-25 22:30N 54°09' E 005°10'1314.2
2016-Jul-25 21:33N 53°56' E 005°03'1414.3
2016-Jul-25 20:33N 53°42' E 004°55'4414.7
2016-Jul-25 17:33N 53°03' E 004°23'1413.9
2016-Jul-25 16:33N 52°50' E 004°13'1212.1
2016-Jul-25 15:34N 52°38' E 004°16'1312.6
2016-Jul-25 14:34N 52°29' E 004°30'5 5.0
2016-Jul-25 13:33N 52°28' E 004°38'7 6.8
2016-Jul-25 12:33N 52°25' E 004°48'2 1.5
2016-Jul-25 11:33N 52°25' E 004°50'0 0.0
2016-Jul-25 10:33N 52°25' E 004°50'0 0.0
2016-Jul-25 09:30N 52°25' E 004°50'0 0.0
2016-Jul-25 08:33N 52°25' E 004°50'0 0.0
2016-Jul-25 07:30N 52°25' E 004°50'0 0.0
2016-Jul-25 06:30N 52°25' E 004°50'0 0.0
2016-Jul-25 05:24N 52°25' E 004°50'0 0.0
2016-Jul-25 04:33N 52°25' E 004°50'0 0.0
2016-Jul-25 03:33N 52°25' E 004°50'0 0.0
2016-Jul-25 02:33N 52°25' E 004°50'0 0.0
2016-Jul-25 01:33N 52°25' E 004°50'0 0.0
2016-Jul-25 00:33N 52°25' E 004°50'0 0.0
2016-Jul-24 23:33N 52°25' E 004°50'0 0.0
2016-Jul-24 22:33N 52°25' E 004°50'0 0.0
2016-Jul-24 21:33N 52°25' E 004°50'0 0.0
2016-Jul-24 20:33N 52°25' E 004°50'0 0.0
2016-Jul-24 19:33N 52°25' E 004°50'0 0.0
2016-Jul-24 18:30N 52°25' E 004°50'0 0.0
2016-Jul-24 17:33N 52°25' E 004°50'0 0.0
2016-Jul-24 16:33N 52°25' E 004°50'0 0.0
2016-Jul-24 15:33N 52°25' E 004°50'0 0.0
2016-Jul-24 14:33N 52°25' E 004°50'0 0.0
2016-Jul-24 13:33N 52°25' E 004°50'0 0.0
2016-Jul-24 12:33N 52°25' E 004°50'0 0.0
2016-Jul-24 11:27N 52°25' E 004°50'0 0.0
2016-Jul-24 10:33N 52°25' E 004°50'0 0.0
2016-Jul-24 09:33N 52°25' E 004°50'0 0.0
2016-Jul-24 08:33N 52°25' E 004°50'0 0.0
2016-Jul-24 07:33N 52°25' E 004°50'0 0.0
2016-Jul-24 06:33N 52°25' E 004°50'0 0.0
2016-Jul-24 05:33N 52°25' E 004°50'0 0.0
2016-Jul-24 04:33N 52°25' E 004°50'0 0.0
2016-Jul-24 03:33N 52°25' E 004°50'0 0.0
2016-Jul-24 02:33N 52°25' E 004°50'0 0.0
2016-Jul-24 01:34N 52°25' E 004°50'3 2.7
2016-Jul-24 00:34N 52°26' E 004°46'6 6.2
2016-Jul-23 23:33N 52°28' E 004°37'4 3.8
2016-Jul-23 22:33N 52°28' E 004°30'1010.0
2016-Jul-23 21:33N 52°29' E 004°14'7 6.9
2016-Jul-23 20:31N 52°27' E 004°02'0 0.1
2016-Jul-23 19:28N 52°27' E 004°02'0 0.0
2016-Jul-23 18:22N 52°27' E 004°02'0 0.0
2016-Jul-23 17:31N 52°27' E 004°02'0 0.0
2016-Jul-23 16:31N 52°27' E 004°02'0 0.0
2016-Jul-23 15:31N 52°27' E 004°02'0 0.1
2016-Jul-23 14:31N 52°27' E 004°02'0 0.0
2016-Jul-23 13:31N 52°27' E 004°02'0 0.0
2016-Jul-23 12:28N 52°27' E 004°02'0 0.0
2016-Jul-23 11:31N 52°27' E 004°02'0 0.0
2016-Jul-23 10:31N 52°27' E 004°02'0 0.0
2016-Jul-23 09:31N 52°27' E 004°02'0 0.0
2016-Jul-23 08:22N 52°27' E 004°02'0 0.0
2016-Jul-23 06:16N 52°27' E 004°02'0 0.0
2016-Jul-23 04:31N 52°27' E 004°02'0 0.0
2016-Jul-23 03:28N 52°27' E 004°02'0 0.1
2016-Jul-23 02:31N 52°27' E 004°02'0 0.0
2016-Jul-23 01:28N 52°27' E 004°02'0 0.0
2016-Jul-23 00:33N 52°27' E 004°02'0 0.0
2016-Jul-22 23:30N 52°27' E 004°02'0 0.0
2016-Jul-22 22:32N 52°27' E 004°02'3 3.2
2016-Jul-22 21:33N 52°27' E 003°57'1312.7
2016-Jul-22 20:33N 52°25' E 003°37'5310.1
2016-Jul-22 15:19N 53°18' E 003°24'7 1.8
2016-Jul-22 11:33N 53°23' E 003°30'4 4.4
2016-Jul-22 10:33N 53°27' E 003°33'8 7.5
2016-Jul-22 09:31N 53°35' E 003°37'2512.5
2016-Jul-22 07:30N 53°54' E 004°05'4013.4
2016-Jul-22 04:32N 54°24' E 004°48'26113.0
2016-Jul-21 08:29N 57°47' E 009°45'1213.2
2016-Jul-21 07:33N 57°50' E 010°07'1414.1
2016-Jul-21 06:34N 57°49' E 010°33'1312.9
2016-Jul-21 05:33N 57°45' E 010°56'1313.5
2016-Jul-21 04:33N 57°36' E 011°14'1313.3
2016-Jul-21 03:33N 57°25' E 011°28'1413.7
2016-Jul-21 02:33N 57°12' E 011°36'1313.4
2016-Jul-21 01:33N 56°59' E 011°46'1313.3
2016-Jul-21 00:33N 56°47' E 011°53'1313.2
2016-Jul-20 23:33N 56°35' E 011°43'1313.5
2016-Jul-20 22:33N 56°23' E 011°31'1313.0
2016-Jul-20 21:33N 56°12' E 011°19'1312.7
2016-Jul-20 20:34N 56°02' E 011°06'5012.4
2016-Jul-20 16:33N 55°12' E 011°05'1312.7
2016-Jul-20 15:33N 54°60' E 010°59'1313.3
2016-Jul-20 14:33N 54°48' E 010°50'1010.2
2016-Jul-20 13:33N 54°38' E 010°55'1313.0
2016-Jul-20 12:34N 54°35' E 011°17'1413.5
2016-Jul-20 11:33N 54°29' E 011°38'1312.6
2016-Jul-20 10:33N 54°26' E 011°59'1110.8
2016-Jul-20 09:34N 54°32' E 012°14'1212.3
2016-Jul-20 08:33N 54°41' E 012°29'3313.4
2016-Jul-20 06:04N 54°56' E 013°21'713.7
2016-Jul-20 05:33N 54°58' E 013°33'1413.7
2016-Jul-20 04:34N 55°02' E 013°55'1313.1
2016-Jul-20 03:33N 55°11' E 014°13'1413.8
2016-Jul-20 02:33N 55°22' E 014°28'1313.5
2016-Jul-20 01:34N 55°30' E 014°47'1413.8
2016-Jul-20 00:33N 55°37' E 015°08'1413.7
2016-Jul-19 23:33N 55°43' E 015°29'1413.6
2016-Jul-19 22:30N 55°51' E 015°51'1513.4
2016-Jul-19 21:23N 55°58' E 016°15'1313.3
2016-Jul-19 20:25N 56°05' E 016°34'  

Dump ship's entire track history